createdAt,value
2023-11-29T00:01:43.694Z,9.10
2023-11-29T00:04:12.998Z,10.03
2023-11-29T00:06:40.869Z,8.93
2023-11-29T00:09:09.984Z,10.43
2023-11-29T00:11:37.951Z,8.97
2023-11-29T00:14:04.880Z,8.37
2023-11-29T00:16:32.992Z,10.17
2023-11-29T00:19:01.163Z,9.63
2023-11-29T00:21:33.462Z,10.07
2023-11-29T00:24:01.526Z,9.40
2023-11-29T00:26:29.295Z,9.60
2023-11-29T00:28:58.102Z,9.47
2023-11-29T00:31:25.946Z,9.10
2023-11-29T00:33:53.752Z,10.23
2023-11-29T00:36:21.570Z,9.73
2023-11-29T00:38:50.649Z,10.57
2023-11-29T00:41:18.411Z,10.43
2023-11-29T00:43:46.167Z,8.73
2023-11-29T00:46:13.938Z,11.17
2023-11-29T00:48:41.683Z,11.33
2023-11-29T00:51:09.488Z,10.00
2023-11-29T00:53:37.242Z,10.20
2023-11-29T00:56:07.717Z,10.27
2023-11-29T00:58:35.512Z,9.63
2023-11-29T01:01:03.309Z,10.20
2023-11-29T01:03:31.193Z,12.13
2023-11-29T01:05:59.018Z,10.47
2023-11-29T01:08:27.126Z,11.50
2023-11-29T01:10:56.066Z,8.90
2023-11-29T01:13:29.841Z,11.83
2023-11-29T01:15:57.722Z,10.83
2023-11-29T01:18:25.585Z,11.07
2023-11-29T01:20:53.442Z,10.30
2023-11-29T01:23:21.341Z,12.10
2023-11-29T01:25:49.179Z,12.23
2023-11-29T01:28:17.113Z,10.30
2023-11-29T01:30:46.399Z,10.90
2023-11-29T01:33:14.207Z,10.53
2023-11-29T01:35:41.957Z,12.27
2023-11-29T01:38:09.949Z,13.23
2023-11-29T01:40:37.795Z,11.37
2023-11-29T01:43:05.561Z,12.93
2023-11-29T01:45:33.314Z,10.00
2023-11-29T01:48:04.061Z,12.73
2023-11-29T01:50:37.572Z,7.17
2023-11-29T01:53:05.723Z,12.33
2023-11-29T01:55:36.251Z,11.00
2023-11-29T01:58:04.284Z,11.67
2023-11-29T02:00:32.285Z,12.60
2023-11-29T02:03:04.488Z,11.67
2023-11-29T02:05:32.503Z,11.70
2023-11-29T02:08:00.713Z,11.53
2023-11-29T02:10:28.571Z,11.70
2023-11-29T02:12:57.253Z,11.73
2023-11-29T02:15:25.012Z,11.47
2023-11-29T02:17:53.081Z,12.63
2023-11-29T02:20:23.643Z,11.87
2023-11-29T02:23:01.749Z,11.47
2023-11-29T02:25:31.051Z,11.53
2023-11-29T02:28:03.650Z,10.57
2023-11-29T02:30:31.406Z,11.80
2023-11-29T02:32:59.991Z,11.83
2023-11-29T02:35:27.806Z,11.57
2023-11-29T02:37:55.544Z,11.33
2023-11-29T02:40:23.628Z,11.33
2023-11-29T02:42:52.766Z,10.87
2023-11-29T02:45:20.636Z,11.20
2023-11-29T02:47:48.719Z,10.00
2023-11-29T02:50:18.407Z,11.00
2023-11-29T02:52:47.055Z,10.87
2023-11-29T02:55:15.128Z,11.13
2023-11-29T02:57:42.892Z,9.83
2023-11-29T03:00:13.365Z,10.73
2023-11-29T03:02:41.244Z,9.33
2023-11-29T03:05:09.315Z,9.87
2023-11-29T03:07:37.072Z,10.30
2023-11-29T03:10:05.265Z,9.90
2023-11-29T03:12:33.048Z,10.63
2023-11-29T03:15:04.161Z,10.87
2023-11-29T03:17:33.466Z,9.70
2023-11-29T03:20:04.808Z,7.83
2023-11-29T03:22:32.606Z,9.27
2023-11-29T03:25:00.677Z,10.23
2023-11-29T03:27:28.449Z,8.97
2023-11-29T03:29:56.560Z,10.30
2023-11-29T03:32:24.364Z,10.17
2023-11-29T03:34:53.448Z,9.53
2023-11-29T03:37:21.227Z,10.23
2023-11-29T03:39:48.942Z,8.00
2023-11-29T03:42:16.793Z,9.93
2023-11-29T03:44:44.652Z,9.93
2023-11-29T03:47:12.485Z,9.53
2023-11-29T03:49:40.570Z,9.90
2023-11-29T03:52:09.704Z,11.57
2023-11-29T03:54:37.426Z,9.60
2023-11-29T03:57:06.069Z,10.40
2023-11-29T03:59:33.833Z,9.30
2023-11-29T04:02:01.760Z,8.03
2023-11-29T04:04:29.550Z,8.70
2023-11-29T04:06:57.342Z,8.83
2023-11-29T04:09:26.457Z,9.07
2023-11-29T04:11:54.265Z,9.87
2023-11-29T04:14:22.128Z,9.30
2023-11-29T04:16:50.070Z,9.20
2023-11-29T04:19:17.897Z,9.87
2023-11-29T04:21:45.649Z,9.67
2023-11-29T04:24:13.367Z,9.83
2023-11-29T04:26:43.456Z,8.87
2023-11-29T04:29:12.913Z,9.50
2023-11-29T04:31:41.327Z,8.03
2023-11-29T04:34:18.386Z,9.17
2023-11-29T04:36:55.650Z,8.90
2023-11-29T04:39:23.399Z,10.27
2023-11-29T04:41:52.803Z,9.77
2023-11-29T04:44:20.585Z,10.10
2023-11-29T04:46:48.428Z,9.63
2023-11-29T04:49:16.164Z,9.70
2023-11-29T04:51:43.922Z,10.67
2023-11-29T04:54:11.632Z,10.47
2023-11-29T04:56:39.414Z,10.43
2023-11-29T04:59:08.575Z,9.20
2023-11-29T05:01:36.470Z,10.63
2023-11-29T05:04:04.419Z,9.53
2023-11-29T05:06:32.507Z,9.77
2023-11-29T05:09:00.486Z,10.10
2023-11-29T05:11:28.454Z,11.37
2023-11-29T05:13:56.275Z,10.87
2023-11-29T05:16:25.320Z,10.17
2023-11-29T05:18:53.169Z,11.23
2023-11-29T05:21:20.997Z,10.33
2023-11-29T05:23:48.761Z,9.90
2023-11-29T05:26:16.613Z,11.53
2023-11-29T05:28:44.427Z,12.00
2023-11-29T05:31:13.938Z,7.73
2023-11-29T05:33:43.233Z,11.37
2023-11-29T05:36:11.737Z,10.73
2023-11-29T05:38:39.517Z,11.23
2023-11-29T05:41:07.573Z,11.83
2023-11-29T05:43:35.279Z,11.27
2023-11-29T05:46:06.022Z,10.37
2023-11-29T05:48:33.743Z,10.40
2023-11-29T05:51:03.490Z,10.03
2023-11-29T05:53:31.281Z,9.77
2023-11-29T05:55:59.052Z,8.97
2023-11-29T05:58:26.909Z,9.50
2023-11-29T06:00:54.721Z,9.40
2023-11-29T06:03:22.807Z,10.13
2023-11-29T06:05:50.621Z,8.67
2023-11-29T06:08:21.138Z,9.83
2023-11-29T06:10:48.922Z,8.57
2023-11-29T06:13:18.544Z,9.93
2023-11-29T06:15:46.276Z,7.83
2023-11-29T06:18:16.853Z,8.43
2023-11-29T06:20:44.825Z,8.07
2023-11-29T06:23:13.242Z,7.60
2023-11-29T06:25:42.411Z,9.27
2023-11-29T06:28:10.136Z,8.20
2023-11-29T06:30:37.954Z,7.10
2023-11-29T06:33:05.829Z,8.23
2023-11-29T06:35:33.645Z,7.70
2023-11-29T06:38:06.038Z,8.10
2023-11-29T06:40:41.561Z,7.97
2023-11-29T06:43:13.443Z,8.23
2023-11-29T06:45:41.285Z,8.93
2023-11-29T06:48:09.073Z,8.27
2023-11-29T06:50:36.927Z,8.10
2023-11-29T06:53:05.817Z,7.93
2023-11-29T06:55:34.366Z,7.83
2023-11-29T06:58:08.118Z,7.60
2023-11-29T07:00:40.726Z,8.13
2023-11-29T07:03:09.011Z,7.77
2023-11-29T07:05:37.029Z,7.37
2023-11-29T07:08:05.622Z,6.80
2023-11-29T07:10:33.357Z,8.60
2023-11-29T07:13:01.485Z,7.40
2023-11-29T07:15:29.222Z,8.43
2023-11-29T07:17:58.499Z,7.37
2023-11-29T07:20:33.847Z,7.70
2023-11-29T07:23:08.243Z,7.63
2023-11-29T07:25:35.953Z,8.20
2023-11-29T07:28:04.125Z,7.67
2023-11-29T07:30:31.865Z,8.07
2023-11-29T07:33:01.104Z,7.03
2023-11-29T07:35:30.062Z,6.93
2023-11-29T07:37:57.901Z,7.77
2023-11-29T07:40:25.629Z,8.37
2023-11-29T07:42:53.340Z,8.30
2023-11-29T07:45:21.203Z,8.60
2023-11-29T07:47:49.161Z,7.77
2023-11-29T07:50:18.445Z,8.43
2023-11-29T07:52:46.260Z,7.93
2023-11-29T07:55:14.091Z,8.17
2023-11-29T07:57:41.865Z,7.27
2023-11-29T08:00:14.842Z,8.07
2023-11-29T08:02:43.564Z,7.73
2023-11-29T08:05:11.683Z,8.00
2023-11-29T08:07:40.949Z,7.33
2023-11-29T08:10:10.055Z,7.97
2023-11-29T08:12:38.329Z,9.60
2023-11-29T08:15:07.749Z,8.40
2023-11-29T08:17:35.764Z,8.03
2023-11-29T08:20:06.596Z,8.63
2023-11-29T08:22:34.784Z,7.67
2023-11-29T08:25:07.548Z,8.83
2023-11-29T08:27:35.822Z,8.37
2023-11-29T08:30:04.187Z,7.80
2023-11-29T08:32:32.002Z,7.90
2023-11-29T08:34:59.767Z,7.60
2023-11-29T08:37:27.544Z,9.00
2023-11-29T08:39:56.502Z,8.03
2023-11-29T08:42:25.667Z,8.47
2023-11-29T08:44:53.793Z,8.17
2023-11-29T08:47:21.576Z,7.17
2023-11-29T08:49:49.421Z,6.30
2023-11-29T08:52:17.308Z,8.23
2023-11-29T08:54:48.327Z,6.83
2023-11-29T08:57:16.104Z,9.20
2023-11-29T08:59:45.339Z,7.13
2023-11-29T09:02:14.295Z,7.33
2023-11-29T09:04:42.134Z,7.33
2023-11-29T09:07:09.962Z,7.20
2023-11-29T09:09:39.593Z,8.10
2023-11-29T09:12:07.952Z,7.50
2023-11-29T09:14:35.810Z,7.67
2023-11-29T09:17:08.052Z,8.00
2023-11-29T09:19:36.219Z,8.03
2023-11-29T09:22:05.053Z,7.50
2023-11-29T09:24:32.916Z,8.30
2023-11-29T09:27:00.938Z,6.93
2023-11-29T09:29:29.287Z,7.27
2023-11-29T09:31:57.139Z,7.20
2023-11-29T09:34:26.246Z,7.93
2023-11-29T09:36:55.338Z,7.27
2023-11-29T09:39:24.551Z,7.40
2023-11-29T09:41:54.321Z,7.93
2023-11-29T09:44:22.695Z,8.70
2023-11-29T09:46:51.247Z,9.07
2023-11-29T09:49:19.186Z,8.37
2023-11-29T09:51:48.606Z,8.20
2023-11-29T09:54:16.626Z,9.33
2023-11-29T09:56:44.573Z,8.80
2023-11-29T09:59:12.418Z,8.63
2023-11-29T10:01:45.711Z,8.67
2023-11-29T10:04:13.811Z,9.70
2023-11-29T10:06:42.266Z,7.50
2023-11-29T10:09:13.480Z,8.87
2023-11-29T10:11:42.184Z,8.80
2023-11-29T10:14:10.096Z,9.30
2023-11-29T10:16:40.770Z,9.60
2023-11-29T10:19:11.367Z,10.33
2023-11-29T10:21:42.610Z,9.17
2023-11-29T10:24:11.825Z,10.43
2023-11-29T10:26:39.670Z,8.67
2023-11-29T10:29:11.281Z,10.00
2023-11-29T10:31:40.318Z,11.47
2023-11-29T10:34:13.144Z,9.07
2023-11-29T10:36:41.441Z,7.40
2023-11-29T10:39:19.491Z,9.30
2023-11-29T10:41:52.558Z,9.17
2023-11-29T10:44:23.703Z,9.57
2023-11-29T10:46:54.477Z,9.87
2023-11-29T10:49:40.433Z,10.17
2023-11-29T10:52:10.269Z,10.10
2023-11-29T10:54:41.533Z,9.43
2023-11-29T10:57:11.065Z,7.67
2023-11-29T10:59:42.580Z,10.27
2023-11-29T11:02:10.637Z,9.43
2023-11-29T11:04:45.618Z,9.57
2023-11-29T11:07:42.787Z,9.57
2023-11-29T11:10:13.190Z,8.73
2023-11-29T11:12:42.198Z,8.83
2023-11-29T11:15:16.426Z,8.37
2023-11-29T11:17:46.087Z,9.07
2023-11-29T11:20:14.640Z,10.17
2023-11-29T11:22:44.248Z,8.47
2023-11-29T11:25:17.157Z,9.47
2023-11-29T11:27:47.765Z,8.50
2023-11-29T11:30:29.273Z,8.10
2023-11-29T11:32:58.769Z,8.00
2023-11-29T11:35:37.548Z,9.60
2023-11-29T11:38:09.112Z,8.33
2023-11-29T11:40:41.353Z,7.93
2023-11-29T11:43:12.573Z,7.50
2023-11-29T11:45:41.107Z,8.20
2023-11-29T11:48:10.175Z,8.20
2023-11-29T11:50:38.514Z,8.17
2023-11-29T11:53:07.545Z,9.07
2023-11-29T11:55:36.727Z,7.60
2023-11-29T11:58:07.200Z,7.77
2023-11-29T12:00:35.123Z,7.37
2023-11-29T12:03:05.635Z,9.13
2023-11-29T12:05:34.494Z,9.80
2023-11-29T12:08:02.945Z,8.50
2023-11-29T12:10:36.389Z,9.97
2023-11-29T12:13:12.133Z,9.80
2023-11-29T12:15:52.253Z,10.73
2023-11-29T12:18:20.920Z,11.33
2023-11-29T12:20:50.987Z,8.50
2023-11-29T12:23:31.406Z,9.53
2023-11-29T12:25:59.732Z,10.07
2023-11-29T12:28:29.807Z,9.97
2023-11-29T12:30:59.793Z,9.13
2023-11-29T12:33:27.904Z,8.43
2023-11-29T12:35:55.881Z,9.87
2023-11-29T12:38:23.643Z,9.93
2023-11-29T12:40:52.729Z,7.97
2023-11-29T12:43:20.657Z,8.17
2023-11-29T12:45:48.447Z,9.23
2023-11-29T12:48:16.386Z,8.73
2023-11-29T12:50:44.576Z,8.33
2023-11-29T12:53:12.444Z,7.47
2023-11-29T12:55:40.116Z,8.40
2023-11-29T12:58:10.327Z,7.93
2023-11-29T13:00:39.306Z,8.60
2023-11-29T13:03:07.080Z,8.30
2023-11-29T13:05:34.985Z,7.43
2023-11-29T13:08:02.979Z,7.83
2023-11-29T13:10:31.451Z,8.47
2023-11-29T13:13:00.874Z,7.77
2023-11-29T13:15:30.208Z,9.10
2023-11-29T13:17:58.059Z,7.63
2023-11-29T13:20:25.896Z,9.27
2023-11-29T13:22:54.029Z,9.87
2023-11-29T13:25:21.841Z,10.13
2023-11-29T13:27:49.701Z,8.53
2023-11-29T13:30:17.789Z,10.53
2023-11-29T13:32:46.916Z,9.17
2023-11-29T13:35:14.690Z,10.27
2023-11-29T13:37:42.444Z,9.97
2023-11-29T13:40:12.537Z,9.80
2023-11-29T13:42:40.468Z,10.10
2023-11-29T13:45:09.661Z,12.57
2023-11-29T13:47:38.398Z,10.87
2023-11-29T13:50:08.501Z,11.07
2023-11-29T13:52:37.169Z,9.80
2023-11-29T13:55:06.359Z,9.80
2023-11-29T13:57:34.219Z,10.20
2023-11-29T14:00:02.003Z,9.53
2023-11-29T14:02:30.128Z,7.73
2023-11-29T14:04:58.080Z,7.53
2023-11-29T14:07:27.539Z,7.70
2023-11-29T14:09:55.342Z,8.20
2023-11-29T14:12:23.229Z,6.93
2023-11-29T14:14:52.861Z,6.37
2023-11-29T14:17:20.612Z,8.87
2023-11-29T14:19:47.321Z,6.83
2023-11-29T14:22:15.546Z,6.57
2023-11-29T14:24:44.607Z,6.50
2023-11-29T14:27:12.391Z,6.87
2023-11-29T14:29:40.201Z,6.43
2023-11-29T14:32:08.477Z,5.80
2023-11-29T14:34:36.181Z,6.50
2023-11-29T14:37:04.668Z,5.43
2023-11-29T14:39:33.879Z,6.00
2023-11-29T14:42:04.912Z,5.53
2023-11-29T14:44:33.194Z,5.87
2023-11-29T14:47:04.068Z,4.90
2023-11-29T14:49:32.784Z,4.90
2023-11-29T14:52:01.170Z,5.27
2023-11-29T14:54:28.900Z,4.97
2023-11-29T14:56:56.727Z,4.60
2023-11-29T14:59:25.775Z,3.93
2023-11-29T15:01:53.521Z,4.23
2023-11-29T15:04:21.370Z,4.00
2023-11-29T15:06:49.229Z,4.27
2023-11-29T15:09:16.973Z,4.30
2023-11-29T15:11:45.771Z,3.83
2023-11-29T15:14:13.628Z,4.73
2023-11-29T15:16:42.793Z,4.30
2023-11-29T15:19:10.653Z,3.77
2023-11-29T15:21:38.523Z,3.60
2023-11-29T15:24:06.791Z,4.33
2023-11-29T15:26:35.997Z,4.20
2023-11-29T15:29:03.786Z,3.90
2023-11-29T15:31:31.531Z,3.87
2023-11-29T15:34:00.825Z,4.53
2023-11-29T15:36:28.737Z,3.87
2023-11-29T15:38:56.687Z,4.40
2023-11-29T15:41:25.194Z,3.83
2023-11-29T15:43:52.978Z,4.30
2023-11-29T15:46:20.781Z,4.57
2023-11-29T15:48:48.737Z,4.20
2023-11-29T15:51:17.891Z,5.13
2023-11-29T15:53:45.634Z,4.90
2023-11-29T15:56:13.509Z,5.00
2023-11-29T15:58:44.641Z,5.10
2023-11-29T16:01:12.677Z,5.30
2023-11-29T16:03:40.852Z,4.63
2023-11-29T16:06:09.695Z,5.30
2023-11-29T16:08:40.216Z,5.40
2023-11-29T16:11:08.562Z,4.70
2023-11-29T16:13:36.522Z,5.37
2023-11-29T16:16:05.244Z,5.43
2023-11-29T16:18:33.151Z,5.27
2023-11-29T16:21:01.007Z,5.50
2023-11-29T16:23:28.768Z,5.30
2023-11-29T16:25:57.947Z,4.87
2023-11-29T16:28:25.681Z,5.40
2023-11-29T16:30:53.658Z,5.57
2023-11-29T16:33:22.441Z,4.57
2023-11-29T16:35:50.401Z,5.30
2023-11-29T16:38:18.241Z,5.53
2023-11-29T16:40:46.514Z,4.73
2023-11-29T16:43:15.624Z,4.93
2023-11-29T16:45:43.441Z,5.27
2023-11-29T16:48:11.646Z,5.87
2023-11-29T16:50:39.544Z,5.90
2023-11-29T16:53:15.777Z,4.87
2023-11-29T16:55:47.195Z,4.97
2023-11-29T16:58:16.643Z,4.87
2023-11-29T17:00:44.552Z,5.53
2023-11-29T17:03:13.440Z,5.37
2023-11-29T17:05:41.596Z,5.37
2023-11-29T17:08:09.368Z,5.10
2023-11-29T17:10:37.240Z,5.07
2023-11-29T17:13:05.029Z,4.43
2023-11-29T17:15:34.238Z,4.67
2023-11-29T17:18:02.188Z,5.30
2023-11-29T17:20:30.096Z,5.23
2023-11-29T17:22:58.017Z,5.43
2023-11-29T17:25:25.755Z,6.43
2023-11-29T17:27:53.524Z,6.07
2023-11-29T17:30:21.412Z,6.30
2023-11-29T17:32:50.616Z,6.10
2023-11-29T17:35:18.422Z,5.37
2023-11-29T17:37:46.385Z,6.10
2023-11-29T17:40:14.313Z,5.53
2023-11-29T17:42:42.001Z,5.40
2023-11-29T17:45:11.464Z,6.07
2023-11-29T17:47:39.314Z,6.20
2023-11-29T17:50:09.484Z,5.47
2023-11-29T17:52:37.237Z,5.40
2023-11-29T17:55:05.673Z,6.30
2023-11-29T17:57:33.687Z,6.53
2023-11-29T18:00:02.964Z,6.33
2023-11-29T18:02:30.739Z,5.30
2023-11-29T18:04:58.507Z,5.50
2023-11-29T18:07:27.662Z,6.00
2023-11-29T18:09:55.476Z,5.53
2023-11-29T18:12:23.215Z,6.10
2023-11-29T18:14:51.020Z,4.90
2023-11-29T18:17:18.848Z,5.47
2023-11-29T18:19:46.635Z,5.57
2023-11-29T18:22:14.408Z,5.87
2023-11-29T18:24:43.568Z,5.77
2023-11-29T18:27:11.591Z,6.53
2023-11-29T18:29:39.440Z,6.57
2023-11-29T18:32:08.251Z,7.13
2023-11-29T18:34:35.952Z,6.87
2023-11-29T18:37:09.336Z,6.87
2023-11-29T18:39:37.254Z,6.97
2023-11-29T18:42:06.697Z,9.90
2023-11-29T18:44:38.325Z,10.33
2023-11-29T18:47:06.673Z,10.47
2023-11-29T18:49:34.486Z,8.40
2023-11-29T18:52:02.220Z,8.53
2023-11-29T18:54:29.983Z,6.20
2023-11-29T18:56:57.752Z,6.93
2023-11-29T18:59:26.856Z,6.93
2023-11-29T19:01:54.745Z,7.50
2023-11-29T19:04:23.046Z,7.03
2023-11-29T19:06:50.986Z,8.13
2023-11-29T19:09:18.734Z,8.67
2023-11-29T19:11:46.514Z,10.70
2023-11-29T19:14:14.237Z,10.50
2023-11-29T19:16:43.360Z,11.03
2023-11-29T19:19:11.580Z,10.27
2023-11-29T19:21:39.333Z,10.07
2023-11-29T19:24:07.903Z,10.13
2023-11-29T19:26:36.830Z,9.80
2023-11-29T19:29:05.916Z,9.90
2023-11-29T19:31:33.651Z,13.47
2023-11-29T19:34:02.719Z,9.67
2023-11-29T19:36:30.446Z,8.60
2023-11-29T19:38:59.383Z,7.40
2023-11-29T19:41:29.245Z,7.70
2023-11-29T19:43:57.264Z,7.63
2023-11-29T19:46:25.068Z,7.00
2023-11-29T19:48:52.926Z,7.30
2023-11-29T19:51:22.080Z,7.73
2023-11-29T19:53:49.961Z,7.23
2023-11-29T19:56:18.616Z,8.00
2023-11-29T19:58:46.492Z,8.00
2023-11-29T20:01:14.713Z,7.23
2023-11-29T20:03:42.558Z,7.73
2023-11-29T20:06:10.440Z,6.63
2023-11-29T20:08:39.589Z,6.87
2023-11-29T20:11:08.615Z,7.87
2023-11-29T20:13:36.371Z,7.60
2023-11-29T20:16:05.327Z,8.30
2023-11-29T20:18:34.412Z,9.17
2023-11-29T20:21:04.586Z,7.70
2023-11-29T20:23:32.907Z,7.20
2023-11-29T20:26:02.149Z,6.70
2023-11-29T20:28:29.974Z,7.33
2023-11-29T20:30:59.812Z,8.63
2023-11-29T20:33:27.694Z,7.10
2023-11-29T20:35:55.500Z,7.53
2023-11-29T20:38:24.013Z,6.80
2023-11-29T20:40:52.774Z,6.93
2023-11-29T20:43:21.971Z,7.73
2023-11-29T20:45:49.687Z,7.60
2023-11-29T20:48:17.641Z,9.27
2023-11-29T20:50:45.758Z,8.40
2023-11-29T20:53:18.623Z,7.27
2023-11-29T20:55:49.134Z,7.03
2023-11-29T20:58:18.531Z,7.23
2023-11-29T21:00:48.027Z,6.27
2023-11-29T21:03:15.924Z,5.30
2023-11-29T21:05:43.904Z,5.93
2023-11-29T21:08:11.588Z,5.53
2023-11-29T21:10:39.355Z,5.63
2023-11-29T21:13:08.613Z,5.43
2023-11-29T21:15:37.502Z,4.97
2023-11-29T21:18:07.078Z,5.87
2023-11-29T21:20:35.309Z,5.97
2023-11-29T21:23:03.081Z,6.10
2023-11-29T21:25:31.943Z,5.63
2023-11-29T21:27:59.787Z,6.60
2023-11-29T21:30:27.598Z,5.60
2023-11-29T21:32:55.342Z,5.90
2023-11-29T21:35:24.479Z,5.23
2023-11-29T21:37:52.166Z,6.13
2023-11-29T21:40:19.920Z,5.27
2023-11-29T21:42:47.640Z,5.33
2023-11-29T21:45:15.394Z,5.50
2023-11-29T21:47:43.369Z,6.60
2023-11-29T21:50:11.467Z,5.90
2023-11-29T21:52:40.604Z,6.87
2023-11-29T21:55:09.050Z,5.97
2023-11-29T21:57:36.753Z,5.87
2023-11-29T22:00:05.733Z,5.90
2023-11-29T22:02:35.503Z,6.53
2023-11-29T22:05:04.799Z,6.23
2023-11-29T22:07:32.545Z,7.23
2023-11-29T22:10:01.625Z,6.87
2023-11-29T22:12:29.333Z,6.77
2023-11-29T22:14:57.091Z,6.87
2023-11-29T22:17:24.846Z,6.27
2023-11-29T22:19:52.567Z,6.97
2023-11-29T22:22:19.358Z,6.67
2023-11-29T22:24:47.101Z,6.57
2023-11-29T22:27:16.203Z,6.63
2023-11-29T22:29:44.238Z,7.20
2023-11-29T22:32:12.248Z,7.07
2023-11-29T22:34:39.993Z,6.90
2023-11-29T22:37:07.732Z,6.13
2023-11-29T22:39:35.962Z,5.87
2023-11-29T22:42:03.836Z,5.93
2023-11-29T22:44:32.910Z,6.27
2023-11-29T22:47:01.160Z,6.00
2023-11-29T22:49:28.882Z,6.00
2023-11-29T22:51:56.694Z,6.93
2023-11-29T22:54:24.470Z,6.13
2023-11-29T22:56:52.259Z,6.80
2023-11-29T22:59:20.041Z,7.27
2023-11-29T23:01:50.925Z,6.63
2023-11-29T23:04:19.001Z,7.37
2023-11-29T23:06:47.047Z,6.80
2023-11-29T23:09:15.613Z,8.00
2023-11-29T23:11:43.474Z,7.60
2023-11-29T23:14:11.247Z,7.43
2023-11-29T23:16:39.084Z,7.63
2023-11-29T23:19:08.835Z,7.23
2023-11-29T23:21:36.614Z,7.90
2023-11-29T23:24:04.595Z,7.23
2023-11-29T23:26:32.387Z,7.23
2023-11-29T23:29:00.106Z,7.43
2023-11-29T23:31:27.937Z,7.77
2023-11-29T23:33:56.045Z,7.07
2023-11-29T23:36:25.151Z,7.13
2023-11-29T23:38:52.913Z,8.27
2023-11-29T23:41:20.750Z,8.57
2023-11-29T23:43:48.455Z,9.97
2023-11-29T23:46:16.327Z,10.17
2023-11-29T23:48:44.053Z,9.97
2023-11-29T23:51:13.264Z,9.63
2023-11-29T23:53:43.580Z,9.67
2023-11-29T23:56:13.900Z,9.10
2023-11-29T23:58:42.016Z,8.10
